Logan Peak - 24 Hour Table
Date & TimeSolar
Radiation
(W/m²)
Wind
Speed
(mph)
Wind
Direction
(degrees)
Air
Temperature
(°F)
Relative
Humidity
(%)
Barometeric
Pressure
(inHg)
2017/10/20 09:00 324 32.7 180 41.5 47 29.57
2017/10/20 08:00 94 36.7 172 40.8 47 29.55
2017/10/20 07:00 2 32.9 154 41.0 49 29.55
2017/10/20 06:00 0 32.4 154 41.7 53 29.57
2017/10/20 05:00 0 30.4 153 41.9 56 29.60
2017/10/20 04:00 0 34.3 167 42.9 58 29.62
2017/10/20 03:00 0 32.8 160 43.3 54 29.64
2017/10/20 02:00 0 32.6 156 43.5 56 29.65
2017/10/20 01:00 0 30.2 159 43.7 57 29.67
2017/10/20 00:00 0 29.6 149 43.2 55 29.69
2017/10/19 23:00 0 30.2 137 43.1 63 29.71
2017/10/19 22:00 0 29.1 149 44.1 58 29.73
2017/10/19 21:00 0 28.4 160 44.5 44 29.74
2017/10/19 20:00 0 28.9 157 44.5 51 29.75
2017/10/19 19:00 0 23.7 158 44.7 48 29.77
2017/10/19 18:00 19 19.6 161 45.6 30 29.78
2017/10/19 17:00 162 12.8 187 47.6 23 29.79
2017/10/19 16:00 351 12.6 172 49.2 23 29.81
2017/10/19 15:00 498 13.8 167 49.8 21 29.81
2017/10/19 14:00 595 13.8 168 49.5 23 29.82
2017/10/19 13:00 642 14.8 162 49.1 24 29.83
2017/10/19 12:00 634 14.4 162 48.7 22 29.85
2017/10/19 11:00 564 14.3 168 48.4 19 29.87
2017/10/19 10:00 436 16.1 168 47.2 22 29.87